Time;durP1;ratioP1;P1;durP2;ratioP2;P2;SDS_P1;SDS_P2;PMS_P1;PMS_P2;Temp;Humidity;BMP_temperature;BMP_pressure;BME280_temperature;BME280_humidity;BME280_pressure;Samples;Min_cycle;Max_cycle;Signal;HPM_P1;HPM_P2
2021/01/09 00:00:14;;;;;;;22.50;16.97;;;;;;;-1.00;87.60;96085.00;1045210;28;20044;-42
2021/01/09 00:00:44;;;;;;;26.15;18.30;;;;;;;-1.03;88.11;96083.50;1044966;28;20012;-42
2021/01/09 00:01:15;;;;;;;25.00;17.80;;;;;;;-1.08;87.93;96081.28;1044802;28;20025;-41
2021/01/09 00:01:45;;;;;;;32.97;20.40;;;;;;;-1.03;88.52;96082.66;1044932;28;20036;-42
2021/01/09 00:02:16;;;;;;;38.00;23.43;;;;;;;-0.98;88.17;96075.38;1041173;28;20056;-41
2021/01/09 00:02:47;;;;;;;24.67;17.67;;;;;;;-0.96;87.86;96081.22;1044580;28;20041;-42
2021/01/09 00:03:18;;;;;;;27.10;17.73;;;;;;;-0.98;87.97;96080.53;1041249;28;20029;-42
2021/01/09 00:03:48;;;;;;;24.77;17.83;;;;;;;-1.00;88.10;96083.25;1040992;28;20030;-42
2021/01/09 00:04:19;;;;;;;23.93;17.93;;;;;;;-1.03;88.52;96086.06;1045121;28;20064;-43
2021/01/09 00:04:52;;;;;;;25.63;17.93;;;;;;;-1.03;88.27;96080.91;1041176;28;20013;-42
2021/01/09 00:05:23;;;;;;;25.50;18.30;;;;;;;-1.13;88.94;96077.41;1045165;28;20025;-42
2021/01/09 00:05:53;;;;;;;24.33;17.80;;;;;;;-1.15;88.69;96077.53;1040989;28;20421;-41
2021/01/09 00:06:24;;;;;;;24.17;18.70;;;;;;;-1.14;89.20;96081.78;1041454;28;20017;-41
2021/01/09 00:06:54;;;;;;;22.87;16.80;;;;;;;-1.12;88.10;96077.28;1036610;28;20013;-42
2021/01/09 00:07:25;;;;;;;30.90;18.63;;;;;;;-1.01;87.79;96081.59;1036553;28;20100;-42
2021/01/09 00:07:55;;;;;;;24.13;17.80;;;;;;;-0.95;87.13;96081.09;1041244;28;20103;-42
2021/01/09 00:08:26;;;;;;;28.37;19.40;;;;;;;-0.92;87.38;96080.84;1041223;28;20098;-41
2021/01/09 00:08:56;;;;;;;29.40;19.53;;;;;;;-0.97;87.58;96083.00;1045272;28;20090;-41
2021/01/09 00:09:27;;;;;;;22.00;16.73;;;;;;;-0.94;87.25;96084.50;1045509;28;20025;-41
2021/01/09 00:09:58;;;;;;;23.53;16.10;;;;;;;-0.95;87.40;96073.34;1045472;28;20047;-42
2021/01/09 00:10:28;;;;;;;26.17;17.95;;;;;;;-0.98;87.20;96081.34;1045586;28;20013;-41
2021/01/09 00:10:59;;;;;;;27.80;19.13;;;;;;;-0.94;86.61;96084.50;1045385;28;20607;-41
2021/01/09 00:11:31;;;;;;;27.00;18.33;;;;;;;-0.92;86.48;96086.00;1045110;28;20017;-42
2021/01/09 00:12:01;;;;;;;32.53;19.67;;;;;;;-0.94;86.79;96092.25;1045464;28;20432;-41
2021/01/09 00:12:32;;;;;;;25.40;17.30;;;;;;;-0.92;87.46;96085.19;1045456;28;20029;-41
2021/01/09 00:13:03;;;;;;;24.75;16.88;;;;;;;-0.90;87.10;96078.13;1045167;28;20468;-42
2021/01/09 00:13:33;;;;;;;22.13;15.10;;;;;;;-0.87;86.65;96080.47;1045226;28;20024;-41
2021/01/09 00:14:04;;;;;;;31.50;19.73;;;;;;;-0.87;86.78;96082.25;1045170;28;20009;-42
2021/01/09 00:14:34;;;;;;;24.90;17.70;;;;;;;-0.91;86.50;96092.03;1041015;28;20022;-42
2021/01/09 00:15:06;;;;;;;25.00;17.00;;;;;;;-0.97;86.57;96082.16;1040778;28;20067;-41
2021/01/09 00:15:37;;;;;;;22.98;16.05;;;;;;;-0.92;86.54;96088.59;1040776;28;20045;-42
2021/01/09 00:16:07;;;;;;;23.00;16.80;;;;;;;-1.00;86.75;96087.56;1041117;28;20026;-41
2021/01/09 00:16:38;;;;;;;23.50;16.67;;;;;;;-1.00;86.84;96085.00;1045124;28;20025;-41
2021/01/09 00:17:08;;;;;;;25.57;17.87;;;;;;;-0.96;86.65;96084.63;1036880;28;20113;-42
2021/01/09 00:17:39;;;;;;;28.13;19.17;;;;;;;-0.93;86.83;96080.97;1036832;28;20490;-41
2021/01/09 00:18:09;;;;;;;32.90;20.43;;;;;;;-0.93;87.19;96088.72;1036807;28;20045;-41
2021/01/09 00:18:40;;;;;;;27.13;18.03;;;;;;;-0.92;87.25;96088.59;1041076;28;20053;-41
2021/01/09 00:19:10;;;;;;;28.07;18.60;;;;;;;-0.91;86.93;96087.66;1045557;28;20040;-42
2021/01/09 00:19:41;;;;;;;28.13;19.03;;;;;;;-0.92;87.44;96085.19;1045329;28;20071;-42
2021/01/09 00:20:15;;;;;;;24.33;17.17;;;;;;;-0.94;87.06;96092.25;1045529;28;20013;-45
2021/01/09 00:20:45;;;;;;;26.73;18.42;;;;;;;-0.96;87.43;96089.78;1045276;28;20496;-42
2021/01/09 00:21:16;;;;;;;24.63;16.83;;;;;;;-0.90;86.88;96081.56;1045398;28;20171;-43
2021/01/09 00:21:47;;;;;;;33.07;20.97;;;;;;;-0.89;86.88;96084.94;1045443;28;20032;-43
2021/01/09 00:22:17;;;;;;;23.07;16.83;;;;;;;-0.87;86.70;96093.38;1045282;28;20009;-42
2021/01/09 00:22:48;;;;;;;25.40;17.50;;;;;;;-0.98;86.66;96090.88;1045254;28;20519;-41
2021/01/09 00:23:18;;;;;;;24.37;16.77;;;;;;;-0.96;87.66;96094.13;1045310;28;20024;-43
2021/01/09 00:23:49;;;;;;;24.40;17.27;;;;;;;-0.95;86.93;96090.63;1045174;28;20021;-42
2021/01/09 00:24:19;;;;;;;24.53;17.60;;;;;;;-0.96;87.08;96088.97;1045393;28;20434;-42
2021/01/09 00:24:50;;;;;;;24.80;17.33;;;;;;;-0.96;87.17;96091.56;1045002;28;20035;-42
2021/01/09 00:25:20;;;;;;;24.10;17.43;;;;;;;-0.96;87.31;96091.56;1045318;28;20028;-42
2021/01/09 00:25:51;;;;;;;25.30;18.30;;;;;;;-0.98;87.08;96083.94;1045338;28;20052;-42
2021/01/09 00:26:21;;;;;;;26.43;17.57;;;;;;;-1.03;87.68;96087.81;1045241;28;20027;-42
2021/01/09 00:26:52;;;;;;;21.23;16.03;;;;;;;-0.99;86.89;96081.47;1045223;28;20063;-42
2021/01/09 00:27:22;;;;;;;22.20;16.50;;;;;;;-0.93;86.72;96084.41;1045648;28;20024;-41
2021/01/09 00:27:54;;;;;;;25.00;17.30;;;;;;;-0.92;86.61;96087.78;1045413;28;20512;-41
2021/01/09 00:28:25;;;;;;;22.10;15.60;;;;;;;-0.98;87.16;96083.94;1044797;28;20111;-42
2021/01/09 00:28:55;;;;;;;21.53;16.13;;;;;;;-0.97;86.82;96092.50;1045023;28;20382;-42
2021/01/09 00:29:26;;;;;;;26.37;17.57;;;;;;;-0.97;87.00;96085.56;1045144;28;20037;-42
2021/01/09 00:29:56;;;;;;;23.10;16.27;;;;;;;-1.00;87.18;96085.00;1044995;28;20036;-42
2021/01/09 00:30:27;;;;;;;24.80;17.53;;;;;;;-0.98;87.65;96089.09;1045202;28;20016;-43
2021/01/09 00:30:57;;;;;;;22.93;16.53;;;;;;;-0.97;87.32;96088.16;1045473;28;20032;-42
2021/01/09 00:31:28;;;;;;;23.03;16.43;;;;;;;-1.03;87.60;96087.81;1045306;28;20128;-42
2021/01/09 00:31:58;;;;;;;22.60;17.50;;;;;;;-1.03;87.65;96087.81;1045376;28;20322;-42
2021/01/09 00:32:29;;;;;;;23.17;17.13;;;;;;;-0.97;87.31;96092.50;1045356;28;20404;-42
2021/01/09 00:32:59;;;;;;;21.10;16.27;;;;;;;-0.95;86.91;96091.44;1045053;28;20017;-43
2021/01/09 00:33:30;;;;;;;23.40;17.27;;;;;;;-0.95;86.86;96082.88;1045328;28;20170;-43
2021/01/09 00:34:00;;;;;;;23.30;16.87;;;;;;;-0.99;87.02;96084.06;1045299;28;20484;-43
2021/01/09 00:34:31;;;;;;;23.03;16.57;;;;;;;-1.04;87.70;96089.59;1045304;28;20139;-41
2021/01/09 00:35:02;;;;;;;23.87;16.47;;;;;;;-1.00;87.75;96092.75;1045112;28;20055;-43
2021/01/09 00:35:33;;;;;;;23.45;17.45;;;;;;;-1.08;87.51;96089.03;1045258;28;20009;-42
2021/01/09 00:36:04;;;;;;;23.87;16.60;;;;;;;-1.15;88.39;96087.06;1044971;28;20437;-45
2021/01/09 00:36:35;;;;;;;22.25;16.88;;;;;;;-1.11;88.44;96085.84;1040922;28;20029;-43
2021/01/09 00:37:06;;;;;;;25.42;17.15;;;;;;;-1.09;88.45;96091.75;1040824;28;20029;-44
2021/01/09 00:37:36;;;;;;;23.03;16.83;;;;;;;-1.08;88.59;96086.44;1041317;28;20121;-41
2021/01/09 00:38:07;;;;;;;24.13;18.13;;;;;;;-1.06;88.39;96094.06;1040794;28;20413;-40
2021/01/09 00:38:37;;;;;;;26.07;17.47;;;;;;;-1.09;88.92;96089.97;1045450;28;20028;-41
2021/01/09 00:39:08;;;;;;;25.30;18.43;;;;;;;-1.10;88.93;96088.31;1045431;28;20342;-41
2021/01/09 00:39:38;;;;;;;29.43;20.50;;;;;;;-1.07;88.62;96095.00;1045725;28;20017;-41
2021/01/09 00:40:09;;;;;;;27.80;18.93;;;;;;;-1.04;88.23;96097.34;1045740;28;20017;-41
2021/01/09 00:40:39;;;;;;;30.90;20.63;;;;;;;-1.03;88.26;96088.66;1045524;28;20075;-42
2021/01/09 00:41:10;;;;;;;23.63;16.80;;;;;;;-1.02;87.63;96098.03;1045578;28;20432;-41
2021/01/09 00:41:40;;;;;;;31.87;21.03;;;;;;;-0.96;87.38;96089.78;1045302;28;20020;-42
2021/01/09 00:42:11;;;;;;;24.80;18.33;;;;;;;-0.93;87.33;96096.47;1045226;28;20017;-41
2021/01/09 00:42:41;;;;;;;23.87;17.87;;;;;;;-0.95;87.11;96096.59;1045264;28;20051;-42
2021/01/09 00:43:12;;;;;;;24.80;17.20;;;;;;;-0.93;86.73;96092.16;1044908;28;20449;-40
2021/01/09 00:43:42;;;;;;;24.67;17.60;;;;;;;-0.93;86.81;96096.47;1045035;28;20052;-41
2021/01/09 00:44:13;;;;;;;28.80;18.70;;;;;;;-0.92;86.22;96096.34;1045093;28;20021;-41
2021/01/09 00:44:43;;;;;;;24.40;17.83;;;;;;;-0.94;86.32;96094.81;1040804;28;20021;-41
2021/01/09 00:45:14;;;;;;;25.60;17.50;;;;;;;-0.95;86.55;96095.78;1044873;28;20017;-40
2021/01/09 00:45:45;;;;;;;24.63;16.73;;;;;;;-0.94;86.51;96092.25;1044866;28;20028;-42
2021/01/09 00:46:16;;;;;;;22.10;16.60;;;;;;;-0.93;86.38;96097.31;1044732;28;20122;-41
2021/01/09 00:46:47;;;;;;;23.77;16.33;;;;;;;-0.97;86.52;96092.50;1044888;28;20017;-42
2021/01/09 00:47:17;;;;;;;23.07;16.50;;;;;;;-0.95;86.15;96090.63;1045056;28;20088;-42
2021/01/09 00:47:48;;;;;;;24.40;17.20;;;;;;;-1.02;86.63;96087.69;1044824;28;20047;-41
2021/01/09 00:48:18;;;;;;;22.77;17.20;;;;;;;-0.99;86.83;96091.81;1045141;28;20049;-42
2021/01/09 00:48:49;;;;;;;28.53;19.00;;;;;;;-0.97;86.86;96089.91;1045176;28;20104;-42
2021/01/09 00:49:19;;;;;;;23.93;16.30;;;;;;;-1.01;86.57;96093.72;1044928;28;20120;-42
2021/01/09 00:49:50;;;;;;;22.57;17.43;;;;;;;-1.04;86.58;96091.38;1045029;28;20472;-42
2021/01/09 00:50:21;;;;;;;25.50;17.80;;;;;;;-1.03;86.76;96088.66;1045013;28;20446;-42
2021/01/09 00:50:51;;;;;;;23.30;17.43;;;;;;;-1.06;87.26;96096.66;1045128;28;20020;-41
2021/01/09 00:51:21;;;;;;;25.70;18.43;;;;;;;-1.10;87.15;96093.50;1045068;28;20157;-42
2021/01/09 00:51:52;;;;;;;26.60;17.77;;;;;;;-1.13;87.69;96092.94;1044851;28;20032;-43
2021/01/09 00:52:22;;;;;;;21.77;16.77;;;;;;;-1.12;87.48;96085.06;1045359;28;20382;-43
2021/01/09 00:52:53;;;;;;;23.77;17.23;;;;;;;-1.07;87.20;96089.84;1045045;28;20021;-42
2021/01/09 00:53:23;;;;;;;23.17;17.53;;;;;;;-1.02;87.61;96089.47;1045018;28;20477;-41
2021/01/09 00:53:54;;;;;;;25.00;18.20;;;;;;;-1.09;87.56;96086.56;1045451;28;20084;-41
2021/01/09 00:54:24;;;;;;;25.83;18.10;;;;;;;-1.07;87.85;96093.25;1045025;28;20017;-41
2021/01/09 00:54:55;;;;;;;26.53;18.07;;;;;;;-1.05;87.90;96087.13;1044827;28;20078;-40
2021/01/09 00:55:25;;;;;;;22.67;16.50;;;;;;;-1.09;87.72;96089.16;1045036;28;20029;-41
2021/01/09 00:55:56;;;;;;;25.97;18.27;;;;;;;-1.05;87.68;96094.88;1045025;28;20111;-41
2021/01/09 00:56:26;;;;;;;25.13;17.60;;;;;;;-1.12;87.77;96095.38;1045131;28;20480;-42
2021/01/09 00:56:57;;;;;;;24.37;18.17;;;;;;;-1.16;88.49;96088.81;1045256;28;20025;-42
2021/01/09 00:57:27;;;;;;;22.87;17.87;;;;;;;-1.09;87.97;96089.97;1045131;28;20024;-42
2021/01/09 00:57:58;;;;;;;24.07;18.00;;;;;;;-1.05;87.64;96087.13;1044928;28;20075;-41
2021/01/09 00:58:28;;;;;;;25.00;17.03;;;;;;;-1.05;88.03;96087.94;1045102;28;20021;-41
2021/01/09 00:58:59;;;;;;;24.90;17.63;;;;;;;-1.13;88.03;96082.59;1045179;28;20405;-42
2021/01/09 00:59:29;;;;;;;24.93;18.13;;;;;;;-1.03;87.92;96096.41;1045234;28;20432;-41
2021/01/09 01:00:00;;;;;;;25.60;18.70;;;;;;;-1.08;87.92;96085.59;1044941;28;20032;-42
2021/01/09 01:00:30;;;;;;;23.10;17.40;;;;;;;-1.09;88.46;96089.97;1044997;28;20040;-41
2021/01/09 01:01:01;;;;;;;23.03;17.33;;;;;;;-1.13;88.57;96088.56;1044854;28;20040;-40
2021/01/09 01:01:32;;;;;;;24.90;18.67;;;;;;;-1.16;88.39;96088.00;1045003;28;20436;-41
2021/01/09 01:02:03;;;;;;;23.38;17.80;;;;;;;-1.08;88.32;96090.78;1044775;28;20096;-43
2021/01/09 01:02:33;;;;;;;23.93;17.20;;;;;;;-1.03;88.26;96095.56;1044743;28;20060;-42
2021/01/09 01:03:05;;;;;;;21.77;16.73;;;;;;;-0.96;87.55;96086.38;1044276;28;20020;-42
2021/01/09 01:03:35;;;;;;;24.85;18.15;;;;;;;-0.95;87.30;96088.84;1040840;28;20018;-41
2021/01/09 01:04:06;;;;;;;21.67;17.37;;;;;;;-1.03;87.55;96093.00;1044769;28;20067;-44
2021/01/09 01:04:36;;;;;;;24.27;17.60;;;;;;;-1.09;87.96;96092.56;1045018;28;20024;-42
2021/01/09 01:05:07;;;;;;;25.57;18.20;;;;;;;-1.10;88.10;96096.06;1044537;28;20036;-41
2021/01/09 01:05:38;;;;;;;24.13;17.33;;;;;;;-1.01;88.33;96093.72;1045058;28;20021;-41
2021/01/09 01:06:09;;;;;;;24.77;17.83;;;;;;;-0.98;88.05;96093.47;1044972;28;20107;-41
2021/01/09 01:06:40;;;;;;;24.13;17.25;;;;;;;-0.97;87.38;96093.34;1044955;28;20350;-40
2021/01/09 01:07:10;;;;;;;23.27;17.63;;;;;;;-0.96;87.29;96089.78;1045043;28;20038;-43
2021/01/09 01:07:41;;;;;;;24.27;17.70;;;;;;;-0.91;87.19;96090.25;1044712;28;20092;-41
2021/01/09 01:08:11;;;;;;;23.63;18.03;;;;;;;-0.90;86.97;96096.22;1045078;28;20017;-41
2021/01/09 01:08:42;;;;;;;27.47;19.67;;;;;;;-0.95;87.67;96088.84;1044998;28;20025;-41
2021/01/09 01:09:12;;;;;;;22.67;16.80;;;;;;;-0.93;87.47;96088.72;1045407;28;20021;-41
2021/01/09 01:09:43;;;;;;;23.23;16.77;;;;;;;-1.08;87.45;96096.78;1045169;28;20020;-41
2021/01/09 01:10:14;;;;;;;25.07;17.37;;;;;;;-1.08;88.03;96094.19;1044875;28;20033;-40
2021/01/09 01:10:46;;;;;;;23.73;18.10;;;;;;;-1.12;88.10;96092.81;1044923;28;20017;-43
2021/01/09 01:11:25;;;;;;;25.35;17.75;;;;;;;-1.07;88.48;96097.59;1044502;28;20075;-43
2021/01/09 01:11:56;;;;;;;26.25;17.73;;;;;;;-1.02;87.95;96092.06;1045196;28;20028;-42
2021/01/09 01:12:26;;;;;;;23.93;17.93;;;;;;;-0.99;88.28;96102.16;1044895;28;20104;-41
2021/01/09 01:12:58;;;;;;;23.73;17.50;;;;;;;-1.04;88.34;96101.72;1044390;28;20016;-42
2021/01/09 01:13:29;;;;;;;27.77;18.23;;;;;;;-1.07;88.56;96098.41;1044702;28;20028;-41
2021/01/09 01:13:59;;;;;;;24.30;18.43;;;;;;;-1.08;88.36;96096.78;1044510;28;20103;-41
2021/01/09 01:14:30;;;;;;;27.63;18.27;;;;;;;-1.12;89.07;96099.75;1044513;28;20092;-42
2021/01/09 01:15:01;;;;;;;26.83;17.97;;;;;;;-1.09;88.55;96094.31;1044886;28;20025;-41
2021/01/09 01:15:31;;;;;;;26.83;18.90;;;;;;;-1.02;88.06;96089.47;1044811;28;20029;-41
2021/01/09 01:16:02;;;;;;;25.47;17.33;;;;;;;-0.98;88.02;96098.63;1044813;28;20373;-41
2021/01/09 01:16:32;;;;;;;23.67;17.10;;;;;;;-0.98;87.47;96102.03;1044902;28;20075;-41
2021/01/09 01:17:03;;;;;;;30.33;19.67;;;;;;;-1.02;87.57;96099.81;1045048;28;20021;-41
2021/01/09 01:17:34;;;;;;;25.77;18.60;;;;;;;-1.04;88.17;96097.34;1044909;28;20513;-41
2021/01/09 01:18:04;;;;;;;25.93;18.33;;;;;;;-1.04;88.30;96099.94;1044884;28;20298;-41
2021/01/09 01:18:35;;;;;;;24.30;18.20;;;;;;;-1.03;88.18;96096.41;1045041;28;20112;-42
2021/01/09 01:19:05;;;;;;;26.60;18.63;;;;;;;-1.03;88.27;96099.00;1044875;28;20024;-41
2021/01/09 01:19:36;;;;;;;26.50;18.83;;;;;;;-1.14;88.69;96099.88;1044763;28;20021;-42
2021/01/09 01:20:07;;;;;;;29.30;18.70;;;;;;;-1.22;89.03;96099.63;1044857;28;20029;-42
2021/01/09 01:20:37;;;;;;;27.95;19.00;;;;;;;-1.26;89.24;96098.25;1044622;28;20032;-41
2021/01/09 01:21:08;;;;;;;24.67;18.37;;;;;;;-1.24;89.49;96104.13;1044680;28;20178;-42
2021/01/09 01:21:38;;;;;;;25.93;18.87;;;;;;;-1.20;89.52;96102.94;1044779;28;20326;-41
2021/01/09 01:22:09;;;;;;;28.40;18.47;;;;;;;-1.12;89.21;96105.72;1036783;28;20025;-41
2021/01/09 01:22:39;;;;;;;25.13;18.17;;;;;;;-1.09;89.31;96102.09;1040441;28;20425;-42
2021/01/09 01:23:10;;;;;;;24.53;16.93;;;;;;;-1.07;88.83;96101.00;1040169;28;20120;-41
2021/01/09 01:23:40;;;;;;;23.70;17.97;;;;;;;-1.07;88.38;96095.00;1040429;28;20037;-42
2021/01/09 01:24:11;;;;;;;26.93;17.77;;;;;;;-1.08;89.05;96101.13;1044761;28;20049;-41
2021/01/09 01:24:41;;;;;;;22.70;17.37;;;;;;;-1.05;88.46;96097.47;1045024;28;20401;-42
2021/01/09 01:25:12;;;;;;;22.60;17.33;;;;;;;-1.07;88.16;96095.00;1044437;28;20013;-41
2021/01/09 01:25:42;;;;;;;26.57;17.50;;;;;;;-1.09;88.51;96102.09;1040284;28;20408;-41
2021/01/09 01:26:13;;;;;;;24.80;17.70;;;;;;;-1.12;88.41;96092.00;1040355;28;20421;-41
2021/01/09 01:26:43;;;;;;;28.80;17.33;;;;;;;-1.15;88.58;96098.22;1036527;28;20010;-42
2021/01/09 01:27:14;;;;;;;24.53;18.30;;;;;;;-1.18;88.56;96093.28;1040563;28;20470;-41
2021/01/09 01:27:44;;;;;;;22.90;16.97;;;;;;;-1.20;88.69;96097.78;1044478;28;20013;-41
2021/01/09 01:28:15;;;;;;;23.83;17.07;;;;;;;-1.21;88.97;96093.53;1044579;28;20017;-41
2021/01/09 01:28:45;;;;;;;24.57;16.73;;;;;;;-1.20;89.16;96097.78;1044861;28;20071;-44
2021/01/09 01:29:16;;;;;;;22.57;17.40;;;;;;;-1.18;88.95;96092.47;1044660;28;20060;-41
2021/01/09 01:29:46;;;;;;;25.10;17.37;;;;;;;-1.21;88.68;96096.13;1044707;28;20037;-41
2021/01/09 01:30:17;;;;;;;24.13;16.90;;;;;;;-1.23;89.17;96087.69;1044712;28;20021;-41
2021/01/09 01:30:51;;;;;;;25.23;17.80;;;;;;;-1.24;88.87;96096.38;1044747;28;20087;-42
2021/01/09 01:31:22;;;;;;;24.60;18.05;;;;;;;-1.22;89.34;96093.66;1044820;28;20365;-40
2021/01/09 01:31:57;;;;;;;25.23;17.95;;;;;;;-1.25;89.32;96098.13;1044663;28;20425;-41
2021/01/09 01:32:27;;;;;;;24.15;17.15;;;;;;;-1.22;89.09;96094.47;1044713;28;20056;-42
2021/01/09 01:32:58;;;;;;;25.00;18.43;;;;;;;-1.23;89.08;96098.03;1044075;28;20029;-41
2021/01/09 01:33:28;;;;;;;26.03;17.67;;;;;;;-1.26;89.13;96098.25;1044424;28;20029;-40
2021/01/09 01:33:59;;;;;;;25.47;18.83;;;;;;;-1.41;89.92;96102.88;1044609;28;20028;-41
2021/01/09 01:34:29;;;;;;;25.13;17.23;;;;;;;-1.36;90.08;96099.94;1044337;28;20075;-42
2021/01/09 01:35:00;;;;;;;23.70;18.07;;;;;;;-1.33;89.84;96102.28;1044709;28;20051;-42
2021/01/09 01:35:31;;;;;;;26.13;18.23;;;;;;;-1.30;89.89;96104.63;1044624;28;20021;-43
2021/01/09 01:36:01;;;;;;;24.07;17.00;;;;;;;-1.30;90.04;96096.88;1044688;28;20267;-42
2021/01/09 01:36:31;;;;;;;23.57;18.60;;;;;;;-1.32;89.80;96104.72;1044659;28;20068;-42
2021/01/09 01:37:02;;;;;;;24.77;18.07;;;;;;;-1.34;90.17;96105.78;1044862;28;20028;-42
2021/01/09 01:37:33;;;;;;;25.97;18.63;;;;;;;-1.34;90.23;96101.44;1044602;28;20025;-42
2021/01/09 01:38:03;;;;;;;27.03;18.70;;;;;;;-1.43;90.49;96104.75;1044461;28;20017;-43
2021/01/09 01:38:34;;;;;;;25.17;18.67;;;;;;;-1.45;90.71;96097.13;1044361;28;20032;-41
2021/01/09 01:39:04;;;;;;;25.77;18.60;;;;;;;-1.38;90.88;96101.78;1040261;28;20013;-42
2021/01/09 01:39:35;;;;;;;25.43;18.27;;;;;;;-1.38;90.98;96099.22;1040140;28;20032;-42
2021/01/09 01:40:06;;;;;;;27.57;18.83;;;;;;;-1.44;91.11;96106.53;1040340;28;20021;-42
2021/01/09 01:40:36;;;;;;;27.42;19.58;;;;;;;-1.36;90.49;96102.50;1040401;28;20096;-41
2021/01/09 01:41:07;;;;;;;26.80;18.70;;;;;;;-1.31;89.74;96102.97;1044295;28;20500;-41
2021/01/09 01:41:38;;;;;;;25.98;18.45;;;;;;;-1.31;89.90;96102.97;1044665;28;20025;-41
2021/01/09 01:42:08;;;;;;;27.57;19.30;;;;;;;-1.33;89.69;96102.28;1044783;28;20021;-42
2021/01/09 01:42:39;;;;;;;26.07;19.13;;;;;;;-1.36;90.07;96098.16;1044442;28;20067;-41
2021/01/09 01:43:10;;;;;;;30.20;19.67;;;;;;;-1.42;90.62;96105.59;1044355;28;20040;-45
2021/01/09 01:43:42;;;;;;;27.38;19.50;;;;;;;-1.40;90.78;96103.69;1044434;28;20099;-42
2021/01/09 01:44:13;;;;;;;25.05;17.90;;;;;;;-1.46;90.85;96108.41;1044405;28;20469;-42
2021/01/09 01:44:44;;;;;;;25.97;19.30;;;;;;;-1.45;91.43;96099.69;1044662;28;20067;-42
2021/01/09 01:45:15;;;;;;;27.88;19.08;;;;;;;-1.44;91.40;96105.72;1044575;28;20009;-42
2021/01/09 01:45:45;;;;;;;27.55;19.58;;;;;;;-1.42;91.74;96103.00;1044349;28;20578;-42
2021/01/09 01:46:16;;;;;;;29.87;20.43;;;;;;;-1.43;91.67;96107.31;1044256;28;20055;-42
2021/01/09 01:46:46;;;;;;;28.40;19.55;;;;;;;-1.45;91.34;96102.28;1040266;28;20512;-42
2021/01/09 01:47:18;;;;;;;24.73;18.63;;;;;;;-1.33;90.92;96110.84;1032065;28;20124;-42
2021/01/09 01:47:48;;;;;;;29.65;20.08;;;;;;;-1.29;90.41;96106.22;1031980;28;20442;-42
2021/01/09 01:48:19;;;;;;;28.60;18.27;;;;;;;-1.28;90.06;96106.09;1028309;28;20031;-42
2021/01/09 01:48:49;;;;;;;27.67;19.87;;;;;;;-1.38;90.40;96096.63;1028367;28;20023;-43
2021/01/09 01:49:20;;;;;;;28.10;19.43;;;;;;;-1.31;90.01;96105.53;1036306;28;20029;-42
2021/01/09 01:49:52;;;;;;;27.03;19.27;;;;;;;-1.28;90.09;96100.94;1040344;28;20032;-42
2021/01/09 01:50:22;;;;;;;28.88;19.40;;;;;;;-1.26;89.77;96100.81;1040724;28;20108;-42
2021/01/09 01:50:53;;;;;;;27.80;19.60;;;;;;;-1.26;89.81;96103.41;1044283;28;20051;-42
2021/01/09 01:51:24;;;;;;;27.30;19.40;;;;;;;-1.28;90.03;96108.69;1040169;28;20486;-42
2021/01/09 01:51:54;;;;;;;27.00;19.67;;;;;;;-1.28;90.05;96095.78;1040336;28;20026;-42
2021/01/09 01:52:25;;;;;;;27.40;19.23;;;;;;;-1.34;89.84;96105.78;1044369;28;20517;-43
2021/01/09 01:52:55;;;;;;;24.50;19.20;;;;;;;-1.41;90.11;96100.28;1044248;28;20017;-42
2021/01/09 01:53:26;;;;;;;26.27;18.73;;;;;;;-1.40;90.02;96106.28;1044840;28;20029;-42
2021/01/09 01:53:57;;;;;;;27.65;19.55;;;;;;;-1.38;90.32;96104.38;1036973;28;20013;-42
2021/01/09 01:54:28;;;;;;;26.23;19.53;;;;;;;-1.45;90.69;96110.03;1036749;28;20058;-42
2021/01/09 01:54:58;;;;;;;26.87;20.07;;;;;;;-1.52;91.05;96101.16;1036929;28;20022;-42
2021/01/09 01:55:29;;;;;;;27.20;19.87;;;;;;;-1.49;91.28;96103.50;1037117;28;20022;-42
2021/01/09 01:56:00;;;;;;;29.17;20.67;;;;;;;-1.60;91.86;96106.06;1036763;28;20017;-42
2021/01/09 01:56:30;;;;;;;29.73;20.50;;;;;;;-1.59;92.48;96112.91;1028542;28;20023;-42
2021/01/09 01:57:00;;;;;;;29.13;19.90;;;;;;;-1.55;92.12;96110.88;1024699;29;20470;-43
2021/01/09 01:57:31;;;;;;;28.07;20.70;;;;;;;-1.51;92.20;96110.50;1028459;28;20118;-42
2021/01/09 01:58:01;;;;;;;26.63;20.33;;;;;;;-1.43;91.84;96109.91;1028995;28;20030;-47
2021/01/09 01:58:32;;;;;;;28.03;20.27;;;;;;;-1.38;91.65;96110.38;1036764;28;20025;-40
2021/01/09 01:59:02;;;;;;;28.23;19.93;;;;;;;-1.35;91.20;96114.47;1041018;28;20127;-41
2021/01/09 01:59:33;;;;;;;26.47;19.07;;;;;;;-1.28;90.73;96116.44;1045519;28;20052;-40
2021/01/09 02:00:04;;;;;;;30.57;20.17;;;;;;;-1.25;90.28;96111.03;1045401;28;20071;-41
2021/01/09 02:00:35;;;;;;;28.48;20.27;;;;;;;-1.24;90.19;96114.44;1040656;28;20021;-41
2021/01/09 02:01:07;;;;;;;27.77;19.73;;;;;;;-1.23;90.40;96115.25;1040946;28;20022;-41
2021/01/09 02:01:37;;;;;;;26.40;20.77;;;;;;;-1.24;89.96;96111.88;1036962;28;20052;-41
2021/01/09 02:02:12;;;;;;;25.60;19.90;;;;;;;-1.22;90.25;96109.16;1029035;28;20037;-41
2021/01/09 02:02:42;;;;;;;27.35;20.58;;;;;;;-1.25;89.97;96112.81;1032595;28;20019;-43
2021/01/09 02:03:15;;;;;;;26.90;19.50;;;;;;;-1.21;90.39;96116.78;1029195;28;20034;-42
2021/01/09 02:03:45;;;;;;;28.77;20.60;;;;;;;-1.22;90.01;96104.00;1035398;28;20105;-41
2021/01/09 02:04:16;;;;;;;25.20;19.60;;;;;;;-1.20;89.94;96104.69;1040558;28;20030;-42
2021/01/09 02:05:04;;;;;;;27.73;20.63;;;;;;;-1.27;90.52;96114.69;1041011;28;20041;-42
2021/01/09 02:05:50;;;;;;;29.42;20.23;;;;;;;-1.23;90.07;96115.25;1044996;28;20112;-42
2021/01/09 02:06:22;;;;;;;27.15;19.73;;;;;;;-1.23;90.36;96115.25;1041087;28;20553;-42
2021/01/09 02:06:53;;;;;;;26.98;19.85;;;;;;;-1.26;90.57;96114.56;1041046;28;20021;-42
2021/01/09 02:07:26;;;;;;;27.53;20.07;;;;;;;-1.27;90.71;96112.94;1032714;28;20022;-42
2021/01/09 02:08:02;;;;;;;29.05;20.08;;;;;;;-1.37;91.01;96109.44;1036866;28;20483;-41
2021/01/09 02:09:02;;;;;;;27.98;20.17;;;;;;;-1.46;91.57;96118.75;1040663;28;20175;-41
2021/01/09 02:09:42;;;;;;;27.77;20.95;;;;;;;-1.41;91.49;96115.78;1044712;28;20052;-42
2021/01/09 02:10:13;;;;;;;30.58;20.42;;;;;;;-1.38;91.30;96114.72;1036904;28;20026;-41
2021/01/09 02:10:44;;;;;;;29.23;20.60;;;;;;;-1.42;91.14;96111.56;1036866;28;20026;-42
2021/01/09 02:11:20;;;;;;;28.52;20.48;;;;;;;-1.48;91.78;96112.84;1028968;28;20029;-41
2021/01/09 02:12:02;;;;;;;32.83;22.38;;;;;;;-1.48;92.31;96117.22;1030405;28;20037;-41
2021/01/09 02:12:42;;;;;;;29.55;20.98;;;;;;;-1.45;91.96;96114.38;1028832;28;20023;-42
2021/01/09 02:13:37;;;;;;;27.70;21.08;;;;;;;-1.42;91.93;96115.91;1032000;28;20033;-41
2021/01/09 02:14:30;;;;;;;28.10;20.27;;;;;;;-1.41;91.43;96110.63;1031261;28;20042;-41
2021/01/09 02:15:00;;;;;;;29.42;20.52;;;;;;;-1.42;91.36;96110.75;1037609;28;20029;-42
2021/01/09 02:15:31;;;;;;;29.57;20.57;;;;;;;-1.44;91.80;96109.09;1034820;28;20366;-41
2021/01/09 02:16:01;;;;;;;27.40;21.40;;;;;;;-1.47;91.81;96105.94;1039416;28;20079;-41
2021/01/09 02:16:32;;;;;;;32.27;22.73;;;;;;;-1.53;91.73;96107.25;1036354;28;20040;-41
2021/01/09 02:17:03;;;;;;;35.87;23.47;;;;;;;-1.51;92.31;96104.53;1036508;28;20068;-41
2021/01/09 02:17:35;;;;;;;31.60;21.73;;;;;;;-1.48;92.26;96109.47;1032007;28;20026;-43
2021/01/09 02:18:06;;;;;;;31.13;22.17;;;;;;;-1.47;92.21;96099.00;1028673;28;20022;-42
2021/01/09 02:18:36;;;;;;;31.93;22.30;;;;;;;-1.46;92.20;96105.00;1028697;28;20030;-41
2021/01/09 02:19:10;;;;;;;28.97;21.67;;;;;;;-1.45;92.51;96106.63;1029056;28;20027;-41
2021/01/09 02:19:42;;;;;;;29.70;21.95;;;;;;;-1.49;92.26;96103.50;1036391;28;20092;-42
2021/01/09 02:20:12;;;;;;;28.55;21.05;;;;;;;-1.51;92.56;96104.53;1037221;28;20036;-40
2021/01/09 02:20:43;;;;;;;29.43;22.30;;;;;;;-1.57;92.48;96103.25;1034012;28;20015;-40
2021/01/09 02:21:24;;;;;;;28.67;21.43;;;;;;;-1.53;92.55;96099.50;1040684;28;20060;-41
2021/01/09 02:21:57;;;;;;;27.63;20.50;;;;;;;-1.52;92.34;96102.88;1040649;28;20014;-43
2021/01/09 02:22:31;;;;;;;30.92;22.70;;;;;;;-1.46;91.80;96102.41;1038421;28;20033;-41
2021/01/09 02:23:02;;;;;;;30.50;21.75;;;;;;;-1.38;91.24;96105.22;1040543;28;20024;-41
2021/01/09 02:23:33;;;;;;;31.15;22.58;;;;;;;-1.37;90.73;96104.25;1042147;28;20029;-41
2021/01/09 02:24:11;;;;;;;29.10;21.43;;;;;;;-1.33;90.92;96103.09;1044825;28;20040;-41